Airport View

Enter AWOS ICAO identifier for current METAR.

ex. KFNL

KPCW 261120Z AUTO 22006KT 10SM CLR 21/17 A3000 RMK AO2

26 Jun 2019 11:48

Frequency: 118.775

Phone: 419-734-9955

Other Area AWOS: CWNB - KTDZ - KLPR - KTTF

TAF KTOL 260520Z 2606/2706 25009KT P6SM SCT250